Leesburg International Airport
KLEE : rendu visible

Aérodrome :











RETROUVEZ-NOUS SUR...

 
LOGIN :

S'inscrire | Disclaimer

   EN    FR    IT 

 









Légende :    VFR   VFR Marginal   IFR   IFR Intensif   IFR Très Intensif
Visi : 
Plafond : 
>= 8 km
>= 3000ft
5 à 8 km
1000 à 3000 ft
1500m à 5 km
500 à 1000 ft
800 à 1500m
200 à 500 ft
< 800m
< 200 ft
Symboles :   Orages  Brouillard  Fortes neiges  Fortes précipitations  Vent > 20 kt






- Altitude de l'aérodrome : 76 ft


KLEE - Leesburg International

DERNIER METAR :
  • 100853Z AUTO 13003KT 9SM CLR 17/15 A3011 RMK AO2 SLP194 T01670150 56004

METARs EXPIRÉS :
  • 100753Z AUTO 00000KT 10SM CLR 17/15 A3011 RMK AO2 SLP194 T01670150
  • 100717Z AUTO 00000KT 9SM CLR 17/15 A3012 RMK AO2 T01670150
  • 100709Z AUTO 00000KT 2 1/2SM BR CLR 17/14 A3012 RMK AO2 T01670144
  • 100653Z AUTO 00000KT 10SM CLR 16/15 A3012 RMK AO2 SLP197 T01610150

TAF KLEE
Valide du 10 à 06h jusqu'au 11 à 06h UTC


100530Z 1006/1106 00000KT P6SM FEW025 FEW050 BKN250
TEMPO 1010/1013 4SM BR SCT003
FM101500 18008KT P6SM SCT035 SCT060
FM110000 18004KT P6SM SCT045 SCT100



MET'MAP, la Météo Aéronautique d'un coup d'oeil ! - Copyright ORBIFLY Décembre 2007 - Disclaimer

ORBIFLY MET'MAP TEAM :

Programmation & Développement : Alexandra Zaïnal
Sur une idée originale de : Baudouin d'Aumeries
Assistance à la programmation : Marc-Olivier Méhu
Soutien technique & logistique : Manuel Goepfert

Contact : metmap@orbifly.com




SOURCES & CREDITS :

   NOAA       Earth
Advisory